sensor_id;sensor_type;location;lat;lon;timestamp;P1;durP1;ratioP1;P2;durP2;ratioP2
2784;SDS011;57944;48.722;9.316;2024-01-30T00:01:03;18.43;;;12.70;;
2784;SDS011;57944;48.722;9.316;2024-01-30T00:03:33;19.97;;;13.40;;
2784;SDS011;57944;48.722;9.316;2024-01-30T00:06:04;26.17;;;12.77;;
2784;SDS011;57944;48.722;9.316;2024-01-30T00:08:38;20.57;;;11.97;;
2784;SDS011;57944;48.722;9.316;2024-01-30T00:11:08;18.30;;;12.73;;
2784;SDS011;57944;48.722;9.316;2024-01-30T00:13:39;18.30;;;12.00;;
2784;SDS011;57944;48.722;9.316;2024-01-30T00:16:19;20.73;;;11.43;;
2784;SDS011;57944;48.722;9.316;2024-01-30T00:18:51;23.33;;;11.30;;
2784;SDS011;57944;48.722;9.316;2024-01-30T00:21:22;24.97;;;13.00;;
2784;SDS011;57944;48.722;9.316;2024-01-30T00:23:55;23.70;;;12.03;;
2784;SDS011;57944;48.722;9.316;2024-01-30T00:26:25;15.93;;;11.93;;
2784;SDS011;57944;48.722;9.316;2024-01-30T00:28:56;21.07;;;13.23;;
2784;SDS011;57944;48.722;9.316;2024-01-30T00:31:26;16.10;;;10.90;;
2784;SDS011;57944;48.722;9.316;2024-01-30T00:33:57;21.10;;;12.33;;
2784;SDS011;57944;48.722;9.316;2024-01-30T00:36:28;22.87;;;11.80;;
2784;SDS011;57944;48.722;9.316;2024-01-30T00:39:03;17.87;;;12.70;;
2784;SDS011;57944;48.722;9.316;2024-01-30T00:41:35;23.60;;;12.73;;
2784;SDS011;57944;48.722;9.316;2024-01-30T00:44:06;18.13;;;12.77;;
2784;SDS011;57944;48.722;9.316;2024-01-30T00:46:36;24.57;;;13.20;;
2784;SDS011;57944;48.722;9.316;2024-01-30T00:49:07;17.60;;;12.27;;
2784;SDS011;57944;48.722;9.316;2024-01-30T00:51:38;17.80;;;12.20;;
2784;SDS011;57944;48.722;9.316;2024-01-30T00:54:11;18.20;;;11.83;;
2784;SDS011;57944;48.722;9.316;2024-01-30T00:56:41;17.97;;;10.70;;
2784;SDS011;57944;48.722;9.316;2024-01-30T00:59:12;21.90;;;12.03;;
2784;SDS011;57944;48.722;9.316;2024-01-30T01:01:43;27.70;;;12.53;;
2784;SDS011;57944;48.722;9.316;2024-01-30T01:04:14;18.83;;;11.53;;
2784;SDS011;57944;48.722;9.316;2024-01-30T01:06:45;19.20;;;12.13;;
2784;SDS011;57944;48.722;9.316;2024-01-30T01:09:18;18.10;;;12.80;;
2784;SDS011;57944;48.722;9.316;2024-01-30T01:11:48;20.70;;;12.77;;
2784;SDS011;57944;48.722;9.316;2024-01-30T01:14:19;15.27;;;11.73;;
2784;SDS011;57944;48.722;9.316;2024-01-30T01:16:49;19.27;;;12.57;;
2784;SDS011;57944;48.722;9.316;2024-01-30T01:19:20;24.13;;;12.83;;
2784;SDS011;57944;48.722;9.316;2024-01-30T01:21:51;15.00;;;10.83;;
2784;SDS011;57944;48.722;9.316;2024-01-30T01:24:24;21.30;;;16.00;;
2784;SDS011;57944;48.722;9.316;2024-01-30T01:26:54;21.40;;;14.70;;
2784;SDS011;57944;48.722;9.316;2024-01-30T01:29:25;19.10;;;11.87;;
2784;SDS011;57944;48.722;9.316;2024-01-30T01:31:56;17.70;;;11.80;;
2784;SDS011;57944;48.722;9.316;2024-01-30T01:34:27;19.53;;;12.03;;
2784;SDS011;57944;48.722;9.316;2024-01-30T01:36:57;18.93;;;12.20;;
2784;SDS011;57944;48.722;9.316;2024-01-30T01:39:31;19.47;;;13.17;;
2784;SDS011;57944;48.722;9.316;2024-01-30T01:42:01;20.10;;;11.63;;
2784;SDS011;57944;48.722;9.316;2024-01-30T01:44:33;19.77;;;11.40;;
2784;SDS011;57944;48.722;9.316;2024-01-30T01:47:03;21.83;;;12.67;;
2784;SDS011;57944;48.722;9.316;2024-01-30T01:49:34;14.93;;;10.80;;
2784;SDS011;57944;48.722;9.316;2024-01-30T01:52:05;19.83;;;11.00;;
2784;SDS011;57944;48.722;9.316;2024-01-30T01:54:39;32.83;;;12.50;;
2784;SDS011;57944;48.722;9.316;2024-01-30T01:57:11;25.03;;;11.53;;
2784;SDS011;57944;48.722;9.316;2024-01-30T01:59:42;18.37;;;11.73;;
2784;SDS011;57944;48.722;9.316;2024-01-30T02:02:13;20.43;;;11.43;;
2784;SDS011;57944;48.722;9.316;2024-01-30T02:04:46;17.73;;;10.63;;
2784;SDS011;57944;48.722;9.316;2024-01-30T02:07:17;19.23;;;12.30;;
2784;SDS011;57944;48.722;9.316;2024-01-30T02:09:51;18.37;;;10.07;;
2784;SDS011;57944;48.722;9.316;2024-01-30T02:12:21;17.93;;;10.00;;
2784;SDS011;57944;48.722;9.316;2024-01-30T02:14:52;28.73;;;13.10;;
2784;SDS011;57944;48.722;9.316;2024-01-30T02:17:23;16.63;;;10.47;;
2784;SDS011;57944;48.722;9.316;2024-01-30T02:19:53;18.67;;;11.90;;
2784;SDS011;57944;48.722;9.316;2024-01-30T02:22:26;18.30;;;11.43;;
2784;SDS011;57944;48.722;9.316;2024-01-30T02:24:57;18.53;;;10.00;;
2784;SDS011;57944;48.722;9.316;2024-01-30T02:27:28;17.63;;;9.23;;
2784;SDS011;57944;48.722;9.316;2024-01-30T02:29:58;14.53;;;9.60;;
2784;SDS011;57944;48.722;9.316;2024-01-30T02:32:29;18.53;;;11.33;;
2784;SDS011;57944;48.722;9.316;2024-01-30T02:35:00;21.70;;;11.93;;
2784;SDS011;57944;48.722;9.316;2024-01-30T02:37:33;17.53;;;10.33;;
2784;SDS011;57944;48.722;9.316;2024-01-30T02:40:04;17.13;;;11.43;;
2784;SDS011;57944;48.722;9.316;2024-01-30T02:42:36;18.03;;;12.00;;
2784;SDS011;57944;48.722;9.316;2024-01-30T02:45:09;21.33;;;11.50;;
2784;SDS011;57944;48.722;9.316;2024-01-30T02:47:40;23.70;;;12.40;;
2784;SDS011;57944;48.722;9.316;2024-01-30T02:50:11;19.10;;;11.63;;
2784;SDS011;57944;48.722;9.316;2024-01-30T02:52:45;20.50;;;12.57;;
2784;SDS011;57944;48.722;9.316;2024-01-30T02:55:16;20.67;;;11.67;;
2784;SDS011;57944;48.722;9.316;2024-01-30T02:57:47;20.30;;;10.87;;
2784;SDS011;57944;48.722;9.316;2024-01-30T03:00:18;22.13;;;12.90;;
2784;SDS011;57944;48.722;9.316;2024-01-30T03:02:48;20.70;;;13.33;;
2784;SDS011;57944;48.722;9.316;2024-01-30T03:05:19;19.17;;;12.17;;
2784;SDS011;57944;48.722;9.316;2024-01-30T03:07:52;21.90;;;11.80;;
2784;SDS011;57944;48.722;9.316;2024-01-30T03:10:23;15.77;;;11.90;;
2784;SDS011;57944;48.722;9.316;2024-01-30T03:12:54;20.13;;;11.93;;
2784;SDS011;57944;48.722;9.316;2024-01-30T03:15:24;20.83;;;11.90;;
2784;SDS011;57944;48.722;9.316;2024-01-30T03:17:55;19.40;;;10.80;;
2784;SDS011;57944;48.722;9.316;2024-01-30T03:20:26;15.03;;;10.00;;
2784;SDS011;57944;48.722;9.316;2024-01-30T03:22:59;20.73;;;10.70;;
2784;SDS011;57944;48.722;9.316;2024-01-30T03:25:30;19.17;;;11.10;;
2784;SDS011;57944;48.722;9.316;2024-01-30T03:28:00;23.00;;;12.00;;
2784;SDS011;57944;48.722;9.316;2024-01-30T03:30:33;17.03;;;11.50;;
2784;SDS011;57944;48.722;9.316;2024-01-30T03:33:04;19.90;;;11.67;;
2784;SDS011;57944;48.722;9.316;2024-01-30T03:35:35;20.93;;;11.80;;
2784;SDS011;57944;48.722;9.316;2024-01-30T03:38:08;18.33;;;11.70;;
2784;SDS011;57944;48.722;9.316;2024-01-30T03:40:38;22.10;;;11.97;;
2784;SDS011;57944;48.722;9.316;2024-01-30T03:43:09;19.33;;;12.27;;
2784;SDS011;57944;48.722;9.316;2024-01-30T03:45:40;20.57;;;11.70;;
2784;SDS011;57944;48.722;9.316;2024-01-30T03:48:10;22.00;;;12.40;;
2784;SDS011;57944;48.722;9.316;2024-01-30T03:50:41;15.80;;;11.33;;
2784;SDS011;57944;48.722;9.316;2024-01-30T03:53:14;18.30;;;13.40;;
2784;SDS011;57944;48.722;9.316;2024-01-30T03:55:45;22.50;;;12.93;;
2784;SDS011;57944;48.722;9.316;2024-01-30T03:58:15;19.63;;;13.30;;
2784;SDS011;57944;48.722;9.316;2024-01-30T04:00:46;17.33;;;10.93;;
2784;SDS011;57944;48.722;9.316;2024-01-30T04:03:17;20.33;;;14.03;;
2784;SDS011;57944;48.722;9.316;2024-01-30T04:05:48;21.20;;;11.47;;
2784;SDS011;57944;48.722;9.316;2024-01-30T04:08:21;20.80;;;12.67;;
2784;SDS011;57944;48.722;9.316;2024-01-30T04:10:51;26.60;;;12.80;;
2784;SDS011;57944;48.722;9.316;2024-01-30T04:13:22;21.20;;;13.47;;
2784;SDS011;57944;48.722;9.316;2024-01-30T04:15:53;21.47;;;12.23;;
2784;SDS011;57944;48.722;9.316;2024-01-30T04:18:23;21.00;;;11.93;;
2784;SDS011;57944;48.722;9.316;2024-01-30T04:20:54;20.47;;;13.03;;
2784;SDS011;57944;48.722;9.316;2024-01-30T04:23:27;25.97;;;14.07;;
2784;SDS011;57944;48.722;9.316;2024-01-30T04:25:58;28.47;;;13.57;;
2784;SDS011;57944;48.722;9.316;2024-01-30T04:28:29;18.83;;;12.10;;
2784;SDS011;57944;48.722;9.316;2024-01-30T04:31:00;18.83;;;12.80;;
2784;SDS011;57944;48.722;9.316;2024-01-30T04:33:30;22.00;;;13.90;;
2784;SDS011;57944;48.722;9.316;2024-01-30T04:36:01;23.53;;;12.73;;
2784;SDS011;57944;48.722;9.316;2024-01-30T04:38:35;23.20;;;14.30;;
2784;SDS011;57944;48.722;9.316;2024-01-30T04:41:05;21.53;;;12.70;;
2784;SDS011;57944;48.722;9.316;2024-01-30T04:43:36;23.07;;;13.57;;
2784;SDS011;57944;48.722;9.316;2024-01-30T04:46:07;19.83;;;12.53;;
2784;SDS011;57944;48.722;9.316;2024-01-30T04:48:37;25.03;;;14.70;;
2784;SDS011;57944;48.722;9.316;2024-01-30T04:51:08;27.37;;;14.90;;
2784;SDS011;57944;48.722;9.316;2024-01-30T04:53:41;26.00;;;13.70;;
2784;SDS011;57944;48.722;9.316;2024-01-30T04:56:12;23.80;;;13.60;;
2784;SDS011;57944;48.722;9.316;2024-01-30T04:58:42;16.80;;;12.23;;
2784;SDS011;57944;48.722;9.316;2024-01-30T05:01:14;22.20;;;13.10;;
2784;SDS011;57944;48.722;9.316;2024-01-30T05:03:45;21.13;;;12.47;;
2784;SDS011;57944;48.722;9.316;2024-01-30T05:06:23;19.73;;;13.60;;
2784;SDS011;57944;48.722;9.316;2024-01-30T05:08:57;16.33;;;12.70;;
2784;SDS011;57944;48.722;9.316;2024-01-30T05:11:27;19.50;;;13.10;;
2784;SDS011;57944;48.722;9.316;2024-01-30T05:13:58;19.73;;;13.67;;
2784;SDS011;57944;48.722;9.316;2024-01-30T05:16:28;25.33;;;16.40;;
2784;SDS011;57944;48.722;9.316;2024-01-30T05:18:59;22.83;;;13.73;;
2784;SDS011;57944;48.722;9.316;2024-01-30T05:21:30;23.47;;;13.23;;
2784;SDS011;57944;48.722;9.316;2024-01-30T05:24:03;19.77;;;12.87;;
2784;SDS011;57944;48.722;9.316;2024-01-30T05:26:36;25.60;;;13.53;;
2784;SDS011;57944;48.722;9.316;2024-01-30T05:29:07;25.00;;;14.83;;
2784;SDS011;57944;48.722;9.316;2024-01-30T05:31:37;21.00;;;13.47;;
2784;SDS011;57944;48.722;9.316;2024-01-30T05:34:08;26.60;;;15.70;;
2784;SDS011;57944;48.722;9.316;2024-01-30T05:36:38;22.57;;;13.63;;
2784;SDS011;57944;48.722;9.316;2024-01-30T05:39:12;24.33;;;13.57;;
2784;SDS011;57944;48.722;9.316;2024-01-30T05:41:42;23.10;;;13.67;;
2784;SDS011;57944;48.722;9.316;2024-01-30T05:44:13;17.63;;;12.07;;
2784;SDS011;57944;48.722;9.316;2024-01-30T05:46:43;25.13;;;14.03;;
2784;SDS011;57944;48.722;9.316;2024-01-30T05:49:14;22.23;;;14.17;;
2784;SDS011;57944;48.722;9.316;2024-01-30T05:51:45;24.17;;;14.37;;
2784;SDS011;57944;48.722;9.316;2024-01-30T05:54:18;24.63;;;16.73;;
2784;SDS011;57944;48.722;9.316;2024-01-30T05:56:48;19.87;;;13.57;;
2784;SDS011;57944;48.722;9.316;2024-01-30T05:59:19;18.23;;;12.57;;
2784;SDS011;57944;48.722;9.316;2024-01-30T06:01:49;27.40;;;13.50;;
2784;SDS011;57944;48.722;9.316;2024-01-30T06:04:20;22.90;;;12.80;;
2784;SDS011;57944;48.722;9.316;2024-01-30T06:06:51;17.90;;;12.10;;
2784;SDS011;57944;48.722;9.316;2024-01-30T06:09:24;25.30;;;15.30;;
2784;SDS011;57944;48.722;9.316;2024-01-30T06:11:55;27.00;;;15.50;;
2784;SDS011;57944;48.722;9.316;2024-01-30T06:14:25;20.50;;;12.80;;
2784;SDS011;57944;48.722;9.316;2024-01-30T06:16:56;21.63;;;13.53;;
2784;SDS011;57944;48.722;9.316;2024-01-30T06:19:26;23.67;;;14.10;;
2784;SDS011;57944;48.722;9.316;2024-01-30T06:21:57;21.23;;;13.50;;
2784;SDS011;57944;48.722;9.316;2024-01-30T06:24:33;25.60;;;14.00;;
2784;SDS011;57944;48.722;9.316;2024-01-30T06:27:04;21.43;;;14.47;;
2784;SDS011;57944;48.722;9.316;2024-01-30T06:29:34;22.90;;;13.53;;
2784;SDS011;57944;48.722;9.316;2024-01-30T06:32:05;24.47;;;13.53;;
2784;SDS011;57944;48.722;9.316;2024-01-30T06:34:40;23.60;;;13.97;;
2784;SDS011;57944;48.722;9.316;2024-01-30T06:37:11;34.03;;;15.43;;
2784;SDS011;57944;48.722;9.316;2024-01-30T06:39:44;38.67;;;15.00;;
2784;SDS011;57944;48.722;9.316;2024-01-30T06:42:15;34.60;;;16.73;;
2784;SDS011;57944;48.722;9.316;2024-01-30T06:44:45;27.27;;;16.30;;
2784;SDS011;57944;48.722;9.316;2024-01-30T06:47:16;29.00;;;15.40;;
2784;SDS011;57944;48.722;9.316;2024-01-30T06:49:47;26.70;;;15.23;;
2784;SDS011;57944;48.722;9.316;2024-01-30T06:52:17;27.43;;;17.30;;
2784;SDS011;57944;48.722;9.316;2024-01-30T06:54:51;26.20;;;15.43;;
2784;SDS011;57944;48.722;9.316;2024-01-30T06:57:24;30.97;;;16.30;;
2784;SDS011;57944;48.722;9.316;2024-01-30T06:59:54;25.83;;;16.13;;
2784;SDS011;57944;48.722;9.316;2024-01-30T07:02:25;29.27;;;15.90;;
2784;SDS011;57944;48.722;9.316;2024-01-30T07:04:56;22.47;;;14.50;;
2784;SDS011;57944;48.722;9.316;2024-01-30T07:07:26;25.10;;;15.70;;
2784;SDS011;57944;48.722;9.316;2024-01-30T07:10:00;20.27;;;15.17;;
2784;SDS011;57944;48.722;9.316;2024-01-30T07:12:31;24.97;;;14.23;;
2784;SDS011;57944;48.722;9.316;2024-01-30T07:15:02;21.63;;;12.60;;
2784;SDS011;57944;48.722;9.316;2024-01-30T07:17:34;20.57;;;13.00;;
2784;SDS011;57944;48.722;9.316;2024-01-30T07:20:06;24.30;;;14.53;;
2784;SDS011;57944;48.722;9.316;2024-01-30T07:22:42;22.73;;;14.47;;
2784;SDS011;57944;48.722;9.316;2024-01-30T07:25:16;27.53;;;14.57;;
2784;SDS011;57944;48.722;9.316;2024-01-30T07:27:48;20.53;;;12.53;;
2784;SDS011;57944;48.722;9.316;2024-01-30T07:30:19;19.83;;;13.63;;
2784;SDS011;57944;48.722;9.316;2024-01-30T07:32:50;27.47;;;14.50;;
2784;SDS011;57944;48.722;9.316;2024-01-30T07:35:20;21.17;;;13.33;;
2784;SDS011;57944;48.722;9.316;2024-01-30T07:37:51;23.60;;;15.60;;
2784;SDS011;57944;48.722;9.316;2024-01-30T07:40:26;20.77;;;14.60;;
2784;SDS011;57944;48.722;9.316;2024-01-30T07:42:56;23.63;;;15.07;;
2784;SDS011;57944;48.722;9.316;2024-01-30T07:45:27;30.00;;;16.97;;
2784;SDS011;57944;48.722;9.316;2024-01-30T07:47:59;26.40;;;14.20;;
2784;SDS011;57944;48.722;9.316;2024-01-30T07:50:30;30.57;;;17.10;;
2784;SDS011;57944;48.722;9.316;2024-01-30T07:53:01;28.43;;;16.13;;
2784;SDS011;57944;48.722;9.316;2024-01-30T07:55:34;27.43;;;17.07;;
2784;SDS011;57944;48.722;9.316;2024-01-30T07:58:05;26.37;;;15.90;;
2784;SDS011;57944;48.722;9.316;2024-01-30T08:00:36;32.57;;;16.70;;
2784;SDS011;57944;48.722;9.316;2024-01-30T08:03:08;25.80;;;16.90;;
2784;SDS011;57944;48.722;9.316;2024-01-30T08:05:39;27.63;;;17.27;;
2784;SDS011;57944;48.722;9.316;2024-01-30T08:08:09;26.03;;;17.03;;
2784;SDS011;57944;48.722;9.316;2024-01-30T08:10:43;28.07;;;16.10;;
2784;SDS011;57944;48.722;9.316;2024-01-30T08:13:14;24.50;;;13.93;;
2784;SDS011;57944;48.722;9.316;2024-01-30T08:15:45;25.10;;;15.10;;
2784;SDS011;57944;48.722;9.316;2024-01-30T08:18:16;25.83;;;13.63;;
2784;SDS011;57944;48.722;9.316;2024-01-30T08:20:46;39.10;;;14.70;;
2784;SDS011;57944;48.722;9.316;2024-01-30T08:23:17;23.10;;;14.90;;
2784;SDS011;57944;48.722;9.316;2024-01-30T08:25:50;18.00;;;14.17;;
2784;SDS011;57944;48.722;9.316;2024-01-30T08:28:21;21.67;;;14.33;;
2784;SDS011;57944;48.722;9.316;2024-01-30T08:30:53;23.23;;;13.50;;
2784;SDS011;57944;48.722;9.316;2024-01-30T08:33:24;22.47;;;14.57;;
2784;SDS011;57944;48.722;9.316;2024-01-30T08:35:54;21.87;;;14.67;;
2784;SDS011;57944;48.722;9.316;2024-01-30T08:38:27;22.53;;;14.73;;
2784;SDS011;57944;48.722;9.316;2024-01-30T08:41:00;24.27;;;14.50;;
2784;SDS011;57944;48.722;9.316;2024-01-30T08:43:31;22.33;;;13.97;;
2784;SDS011;57944;48.722;9.316;2024-01-30T08:46:03;26.87;;;15.70;;
2784;SDS011;57944;48.722;9.316;2024-01-30T08:48:33;26.13;;;16.07;;
2784;SDS011;57944;48.722;9.316;2024-01-30T08:51:06;23.00;;;16.47;;
2784;SDS011;57944;48.722;9.316;2024-01-30T08:53:37;18.50;;;12.50;;
2784;SDS011;57944;48.722;9.316;2024-01-30T08:56:11;20.33;;;12.87;;
2784;SDS011;57944;48.722;9.316;2024-01-30T08:58:43;30.20;;;13.27;;
2784;SDS011;57944;48.722;9.316;2024-01-30T09:01:13;22.00;;;13.57;;
2784;SDS011;57944;48.722;9.316;2024-01-30T09:03:44;15.47;;;12.63;;
2784;SDS011;57944;48.722;9.316;2024-01-30T09:06:15;17.80;;;11.83;;
2784;SDS011;57944;48.722;9.316;2024-01-30T09:08:46;20.80;;;13.83;;
2784;SDS011;57944;48.722;9.316;2024-01-30T09:11:19;18.70;;;11.70;;
2784;SDS011;57944;48.722;9.316;2024-01-30T09:13:49;16.87;;;10.77;;
2784;SDS011;57944;48.722;9.316;2024-01-30T09:16:20;17.67;;;10.33;;
2784;SDS011;57944;48.722;9.316;2024-01-30T09:18:51;16.23;;;10.70;;
2784;SDS011;57944;48.722;9.316;2024-01-30T09:21:22;18.10;;;10.63;;
2784;SDS011;57944;48.722;9.316;2024-01-30T09:23:53;16.87;;;11.80;;
2784;SDS011;57944;48.722;9.316;2024-01-30T09:26:33;15.40;;;10.83;;
2784;SDS011;57944;48.722;9.316;2024-01-30T09:29:03;16.97;;;11.03;;
2784;SDS011;57944;48.722;9.316;2024-01-30T09:31:34;14.60;;;11.27;;
2784;SDS011;57944;48.722;9.316;2024-01-30T09:34:05;17.33;;;10.50;;
2784;SDS011;57944;48.722;9.316;2024-01-30T09:36:35;15.30;;;10.20;;
2784;SDS011;57944;48.722;9.316;2024-01-30T09:39:06;15.40;;;10.77;;
2784;SDS011;57944;48.722;9.316;2024-01-30T09:41:40;19.63;;;11.43;;
2784;SDS011;57944;48.722;9.316;2024-01-30T09:44:16;18.83;;;10.60;;
2784;SDS011;57944;48.722;9.316;2024-01-30T09:46:49;16.30;;;11.23;;
2784;SDS011;57944;48.722;9.316;2024-01-30T09:49:20;15.00;;;11.90;;
2784;SDS011;57944;48.722;9.316;2024-01-30T09:51:51;14.00;;;10.17;;
2784;SDS011;57944;48.722;9.316;2024-01-30T09:54:22;20.27;;;11.17;;
2784;SDS011;57944;48.722;9.316;2024-01-30T09:56:56;15.93;;;11.13;;
2784;SDS011;57944;48.722;9.316;2024-01-30T09:59:26;16.97;;;12.47;;
2784;SDS011;57944;48.722;9.316;2024-01-30T10:01:57;20.80;;;11.73;;
2784;SDS011;57944;48.722;9.316;2024-01-30T10:04:30;17.53;;;10.87;;
2784;SDS011;57944;48.722;9.316;2024-01-30T10:07:01;16.70;;;11.03;;
2784;SDS011;57944;48.722;9.316;2024-01-30T10:09:33;15.13;;;10.97;;
2784;SDS011;57944;48.722;9.316;2024-01-30T10:12:07;18.77;;;11.27;;
2784;SDS011;57944;48.722;9.316;2024-01-30T10:14:39;14.60;;;10.03;;
2784;SDS011;57944;48.722;9.316;2024-01-30T10:17:10;14.63;;;9.60;;
2784;SDS011;57944;48.722;9.316;2024-01-30T10:19:57;15.20;;;10.60;;
2784;SDS011;57944;48.722;9.316;2024-01-30T10:22:28;14.57;;;10.57;;
2784;SDS011;57944;48.722;9.316;2024-01-30T10:24:59;13.37;;;10.00;;
2784;SDS011;57944;48.722;9.316;2024-01-30T10:27:34;14.80;;;10.77;;
2784;SDS011;57944;48.722;9.316;2024-01-30T10:30:06;13.13;;;9.70;;
2784;SDS011;57944;48.722;9.316;2024-01-30T10:32:37;18.47;;;11.07;;
2784;SDS011;57944;48.722;9.316;2024-01-30T10:35:08;12.73;;;10.00;;
2784;SDS011;57944;48.722;9.316;2024-01-30T10:37:41;13.80;;;10.33;;
2784;SDS011;57944;48.722;9.316;2024-01-30T10:40:15;13.10;;;9.03;;
2784;SDS011;57944;48.722;9.316;2024-01-30T10:42:51;13.27;;;10.77;;
2784;SDS011;57944;48.722;9.316;2024-01-30T10:45:25;20.10;;;10.60;;
2784;SDS011;57944;48.722;9.316;2024-01-30T10:47:58;14.57;;;9.97;;
2784;SDS011;57944;48.722;9.316;2024-01-30T10:50:30;12.43;;;9.30;;
2784;SDS011;57944;48.722;9.316;2024-01-30T10:53:16;18.03;;;12.77;;
2784;SDS011;57944;48.722;9.316;2024-01-30T10:55:48;18.47;;;13.47;;
2784;SDS011;57944;48.722;9.316;2024-01-30T10:58:24;26.07;;;12.20;;
2784;SDS011;57944;48.722;9.316;2024-01-30T11:00:56;19.50;;;12.37;;
2784;SDS011;57944;48.722;9.316;2024-01-30T11:03:28;17.37;;;12.60;;
2784;SDS011;57944;48.722;9.316;2024-01-30T11:05:59;19.57;;;12.10;;
2784;SDS011;57944;48.722;9.316;2024-01-30T11:08:31;19.20;;;12.23;;
2784;SDS011;57944;48.722;9.316;2024-01-30T11:11:02;16.03;;;9.73;;
2784;SDS011;57944;48.722;9.316;2024-01-30T11:13:45;14.70;;;9.93;;
2784;SDS011;57944;48.722;9.316;2024-01-30T11:16:19;11.73;;;9.03;;
2784;SDS011;57944;48.722;9.316;2024-01-30T11:18:50;16.27;;;10.60;;
2784;SDS011;57944;48.722;9.316;2024-01-30T11:21:21;12.90;;;9.27;;
2784;SDS011;57944;48.722;9.316;2024-01-30T11:23:55;16.73;;;11.43;;
2784;SDS011;57944;48.722;9.316;2024-01-30T11:26:27;15.20;;;10.40;;
2784;SDS011;57944;48.722;9.316;2024-01-30T11:29:02;14.80;;;9.67;;
2784;SDS011;57944;48.722;9.316;2024-01-30T11:31:33;15.87;;;10.60;;
2784;SDS011;57944;48.722;9.316;2024-01-30T11:34:04;14.47;;;10.10;;
2784;SDS011;57944;48.722;9.316;2024-01-30T11:36:36;15.80;;;11.20;;
2784;SDS011;57944;48.722;9.316;2024-01-30T11:39:08;14.97;;;11.13;;
2784;SDS011;57944;48.722;9.316;2024-01-30T11:41:39;15.07;;;10.00;;
2784;SDS011;57944;48.722;9.316;2024-01-30T11:44:13;14.10;;;11.00;;
2784;SDS011;57944;48.722;9.316;2024-01-30T11:46:44;16.53;;;10.63;;
2784;SDS011;57944;48.722;9.316;2024-01-30T11:49:15;14.73;;;10.70;;
2784;SDS011;57944;48.722;9.316;2024-01-30T11:51:48;15.80;;;10.70;;
2784;SDS011;57944;48.722;9.316;2024-01-30T11:54:20;15.50;;;11.20;;
2784;SDS011;57944;48.722;9.316;2024-01-30T11:56:50;21.23;;;11.70;;
2784;SDS011;57944;48.722;9.316;2024-01-30T11:59:23;18.37;;;11.20;;
2784;SDS011;57944;48.722;9.316;2024-01-30T12:01:54;14.37;;;10.77;;
2784;SDS011;57944;48.722;9.316;2024-01-30T12:04:27;19.77;;;11.00;;
2784;SDS011;57944;48.722;9.316;2024-01-30T12:06:58;16.70;;;12.27;;
2784;SDS011;57944;48.722;9.316;2024-01-30T12:09:30;16.50;;;11.53;;
2784;SDS011;57944;48.722;9.316;2024-01-30T12:12:00;21.37;;;13.63;;
2784;SDS011;57944;48.722;9.316;2024-01-30T12:14:34;26.00;;;16.40;;
2784;SDS011;57944;48.722;9.316;2024-01-30T12:17:05;22.43;;;14.83;;
2784;SDS011;57944;48.722;9.316;2024-01-30T12:19:37;23.17;;;15.20;;
2784;SDS011;57944;48.722;9.316;2024-01-30T12:22:08;20.80;;;16.20;;
2784;SDS011;57944;48.722;9.316;2024-01-30T12:24:40;23.33;;;14.47;;
2784;SDS011;57944;48.722;9.316;2024-01-30T12:27:11;15.73;;;11.60;;
2784;SDS011;57944;48.722;9.316;2024-01-30T12:29:47;17.37;;;11.13;;
2784;SDS011;57944;48.722;9.316;2024-01-30T12:32:24;19.80;;;10.90;;
2784;SDS011;57944;48.722;9.316;2024-01-30T12:34:55;16.60;;;11.13;;
2784;SDS011;57944;48.722;9.316;2024-01-30T12:37:27;23.13;;;13.00;;
2784;SDS011;57944;48.722;9.316;2024-01-30T12:39:59;27.47;;;14.77;;
2784;SDS011;57944;48.722;9.316;2024-01-30T12:42:29;19.00;;;12.33;;
2784;SDS011;57944;48.722;9.316;2024-01-30T12:45:03;16.13;;;11.63;;
2784;SDS011;57944;48.722;9.316;2024-01-30T12:47:34;18.80;;;12.50;;
2784;SDS011;57944;48.722;9.316;2024-01-30T12:50:05;23.57;;;13.60;;
2784;SDS011;57944;48.722;9.316;2024-01-30T12:52:36;16.13;;;11.53;;
2784;SDS011;57944;48.722;9.316;2024-01-30T12:55:07;15.43;;;11.70;;
2784;SDS011;57944;48.722;9.316;2024-01-30T12:57:38;15.60;;;11.93;;
2784;SDS011;57944;48.722;9.316;2024-01-30T13:00:12;27.47;;;12.07;;
2784;SDS011;57944;48.722;9.316;2024-01-30T13:02:44;20.90;;;11.63;;
2784;SDS011;57944;48.722;9.316;2024-01-30T13:05:15;18.43;;;11.00;;
2784;SDS011;57944;48.722;9.316;2024-01-30T13:07:46;27.07;;;12.30;;
2784;SDS011;57944;48.722;9.316;2024-01-30T13:10:16;14.80;;;11.23;;
2784;SDS011;57944;48.722;9.316;2024-01-30T13:12:48;15.30;;;12.67;;
2784;SDS011;57944;48.722;9.316;2024-01-30T13:15:22;33.33;;;12.93;;
2784;SDS011;57944;48.722;9.316;2024-01-30T13:17:52;13.73;;;9.83;;
2784;SDS011;57944;48.722;9.316;2024-01-30T13:20:23;19.00;;;11.70;;
2784;SDS011;57944;48.722;9.316;2024-01-30T13:22:54;16.93;;;11.70;;
2784;SDS011;57944;48.722;9.316;2024-01-30T13:25:25;18.30;;;11.47;;
2784;SDS011;57944;48.722;9.316;2024-01-30T13:27:55;17.10;;;12.57;;
2784;SDS011;57944;48.722;9.316;2024-01-30T13:30:29;13.90;;;9.57;;
2784;SDS011;57944;48.722;9.316;2024-01-30T13:32:59;15.30;;;10.93;;
2784;SDS011;57944;48.722;9.316;2024-01-30T13:35:30;13.40;;;10.20;;
2784;SDS011;57944;48.722;9.316;2024-01-30T13:38:01;16.57;;;11.07;;
2784;SDS011;57944;48.722;9.316;2024-01-30T13:40:31;14.50;;;11.27;;
2784;SDS011;57944;48.722;9.316;2024-01-30T13:43:03;19.13;;;9.83;;
2784;SDS011;57944;48.722;9.316;2024-01-30T13:45:36;13.23;;;9.73;;
2784;SDS011;57944;48.722;9.316;2024-01-30T13:48:08;21.43;;;11.17;;
2784;SDS011;57944;48.722;9.316;2024-01-30T13:50:39;17.60;;;11.40;;
2784;SDS011;57944;48.722;9.316;2024-01-30T13:53:09;20.73;;;10.97;;
2784;SDS011;57944;48.722;9.316;2024-01-30T13:55:40;15.77;;;11.83;;
2784;SDS011;57944;48.722;9.316;2024-01-30T13:58:11;17.37;;;11.07;;
2784;SDS011;57944;48.722;9.316;2024-01-30T14:00:44;18.30;;;10.13;;
2784;SDS011;57944;48.722;9.316;2024-01-30T14:03:16;16.33;;;12.03;;
2784;SDS011;57944;48.722;9.316;2024-01-30T14:05:46;19.00;;;11.60;;
2784;SDS011;57944;48.722;9.316;2024-01-30T14:08:17;28.83;;;12.40;;
2784;SDS011;57944;48.722;9.316;2024-01-30T14:10:50;18.80;;;13.30;;
2784;SDS011;57944;48.722;9.316;2024-01-30T14:13:21;15.40;;;12.47;;
2784;SDS011;57944;48.722;9.316;2024-01-30T14:15:55;22.27;;;14.90;;
2784;SDS011;57944;48.722;9.316;2024-01-30T14:18:26;22.10;;;12.70;;
2784;SDS011;57944;48.722;9.316;2024-01-30T14:20:57;24.23;;;14.23;;
2784;SDS011;57944;48.722;9.316;2024-01-30T14:23:27;23.03;;;13.67;;
2784;SDS011;57944;48.722;9.316;2024-01-30T14:25:58;17.63;;;12.73;;
2784;SDS011;57944;48.722;9.316;2024-01-30T14:28:28;21.20;;;12.87;;
2784;SDS011;57944;48.722;9.316;2024-01-30T14:31:02;16.23;;;12.30;;
2784;SDS011;57944;48.722;9.316;2024-01-30T14:33:32;18.97;;;12.77;;
2784;SDS011;57944;48.722;9.316;2024-01-30T14:36:04;24.30;;;13.37;;
2784;SDS011;57944;48.722;9.316;2024-01-30T14:38:35;25.13;;;12.93;;
2784;SDS011;57944;48.722;9.316;2024-01-30T14:41:06;20.53;;;12.50;;
2784;SDS011;57944;48.722;9.316;2024-01-30T14:43:37;29.03;;;14.07;;
2784;SDS011;57944;48.722;9.316;2024-01-30T14:46:10;32.20;;;13.27;;
2784;SDS011;57944;48.722;9.316;2024-01-30T14:48:41;25.20;;;13.80;;
2784;SDS011;57944;48.722;9.316;2024-01-30T14:51:12;21.97;;;12.97;;
2784;SDS011;57944;48.722;9.316;2024-01-30T14:53:43;21.13;;;12.37;;
2784;SDS011;57944;48.722;9.316;2024-01-30T14:56:13;27.03;;;13.37;;
2784;SDS011;57944;48.722;9.316;2024-01-30T14:58:44;18.27;;;12.80;;
2784;SDS011;57944;48.722;9.316;2024-01-30T15:01:17;25.73;;;13.37;;